Weather at Poprad-Tatry Airport

Public forecast

Using degrees Celsius for public forecast. Weather courtesy of forecast.io.

Current aviation weather report (METAR) for Poprad-Tatry Airport

Retrieved 2021/12/01 12:30 UTC (1 minute ago):

LZTT 011230Z 24020KT 5000 -SN FEW026 BKN050 02/M02 Q1001 TEMPO 2500 SN BKN008 OVC020

Aviation forecast (TAF) for Poprad-Tatry Airport

Retrieved 2021/12/01 12:58 UTC (0 seconds ago):

TAF LZTT 011100Z 0112/0212 25010KT 9999 SCT020 BKN040 TEMPO 0112/0115 4000 -RASN BR SCT010 BKN014 OVC025 TEMPO 0113/0118 24015G25KT TEMPO 0122/0207 2500 -SNRA BR SCT004 BKN009 OVC020